sensor_id;sensor_type;location;lat;lon;timestamp;P1;durP1;ratioP1;P2;durP2;ratioP2
70549;SDS011;58101;48.658;2.328;2023-04-25T00:00:28;11.18;;;3.83;;
70549;SDS011;58101;48.658;2.328;2023-04-25T00:02:53;8.25;;;3.22;;
70549;SDS011;58101;48.658;2.328;2023-04-25T00:05:21;8.27;;;3.30;;
70549;SDS011;58101;48.658;2.328;2023-04-25T00:07:48;10.32;;;3.20;;
70549;SDS011;58101;48.658;2.328;2023-04-25T00:10:17;7.97;;;3.25;;
70549;SDS011;58101;48.658;2.328;2023-04-25T00:12:43;7.93;;;3.22;;
70549;SDS011;58101;48.658;2.328;2023-04-25T00:15:09;8.90;;;3.58;;
70549;SDS011;58101;48.658;2.328;2023-04-25T00:17:35;10.48;;;3.38;;
70549;SDS011;58101;48.658;2.328;2023-04-25T00:20:03;10.18;;;3.78;;
70549;SDS011;58101;48.658;2.328;2023-04-25T00:22:34;9.85;;;3.60;;
70549;SDS011;58101;48.658;2.328;2023-04-25T00:25:02;8.50;;;3.50;;
70549;SDS011;58101;48.658;2.328;2023-04-25T00:27:31;9.48;;;3.70;;
70549;SDS011;58101;48.658;2.328;2023-04-25T00:29:57;10.07;;;4.53;;
70549;SDS011;58101;48.658;2.328;2023-04-25T00:32:22;9.98;;;3.80;;
70549;SDS011;58101;48.658;2.328;2023-04-25T00:34:48;11.15;;;3.90;;
70549;SDS011;58101;48.658;2.328;2023-04-25T00:37:14;12.52;;;3.80;;
70549;SDS011;58101;48.658;2.328;2023-04-25T00:39:39;9.63;;;3.63;;
70549;SDS011;58101;48.658;2.328;2023-04-25T00:42:05;10.35;;;3.90;;
70549;SDS011;58101;48.658;2.328;2023-04-25T00:44:31;7.95;;;3.85;;
70549;SDS011;58101;48.658;2.328;2023-04-25T00:46:58;11.32;;;3.47;;
70549;SDS011;58101;48.658;2.328;2023-04-25T00:49:25;11.60;;;4.55;;
70549;SDS011;58101;48.658;2.328;2023-04-25T00:51:50;8.88;;;3.80;;
70549;SDS011;58101;48.658;2.328;2023-04-25T00:54:16;9.80;;;3.88;;
70549;SDS011;58101;48.658;2.328;2023-04-25T00:56:42;11.52;;;4.28;;
70549;SDS011;58101;48.658;2.328;2023-04-25T00:59:10;9.90;;;4.38;;
70549;SDS011;58101;48.658;2.328;2023-04-25T01:01:38;10.50;;;3.90;;
70549;SDS011;58101;48.658;2.328;2023-04-25T01:04:07;10.65;;;3.92;;
70549;SDS011;58101;48.658;2.328;2023-04-25T01:06:33;10.48;;;4.25;;
70549;SDS011;58101;48.658;2.328;2023-04-25T01:08:59;10.48;;;4.40;;
70549;SDS011;58101;48.658;2.328;2023-04-25T01:11:24;9.30;;;3.97;;
70549;SDS011;58101;48.658;2.328;2023-04-25T01:13:50;11.93;;;4.53;;
70549;SDS011;58101;48.658;2.328;2023-04-25T01:19:07;11.85;;;4.22;;
70549;SDS011;58101;48.658;2.328;2023-04-25T01:21:36;10.40;;;4.43;;
70549;SDS011;58101;48.658;2.328;2023-04-25T01:24:02;11.18;;;4.10;;
70549;SDS011;58101;48.658;2.328;2023-04-25T01:26:28;11.80;;;3.95;;
70549;SDS011;58101;48.658;2.328;2023-04-25T01:28:54;9.50;;;3.85;;
70549;SDS011;58101;48.658;2.328;2023-04-25T01:31:20;11.07;;;4.40;;
70549;SDS011;58101;48.658;2.328;2023-04-25T01:33:46;10.63;;;4.13;;
70549;SDS011;58101;48.658;2.328;2023-04-25T01:36:12;10.05;;;4.47;;
70549;SDS011;58101;48.658;2.328;2023-04-25T01:38:39;13.02;;;4.32;;
70549;SDS011;58101;48.658;2.328;2023-04-25T01:41:05;13.02;;;4.30;;
70549;SDS011;58101;48.658;2.328;2023-04-25T01:43:31;10.50;;;3.92;;
70549;SDS011;58101;48.658;2.328;2023-04-25T01:45:56;10.23;;;4.22;;
70549;SDS011;58101;48.658;2.328;2023-04-25T01:48:22;13.15;;;4.30;;
70549;SDS011;58101;48.658;2.328;2023-04-25T01:50:48;10.68;;;4.53;;
70549;SDS011;58101;48.658;2.328;2023-04-25T01:53:14;10.73;;;4.75;;
70549;SDS011;58101;48.658;2.328;2023-04-25T01:55:39;11.82;;;4.30;;
70549;SDS011;58101;48.658;2.328;2023-04-25T01:58:05;11.88;;;4.25;;
70549;SDS011;58101;48.658;2.328;2023-04-25T02:00:35;10.82;;;3.92;;
70549;SDS011;58101;48.658;2.328;2023-04-25T02:03:03;12.52;;;4.28;;
70549;SDS011;58101;48.658;2.328;2023-04-25T02:05:33;12.57;;;4.10;;
70549;SDS011;58101;48.658;2.328;2023-04-25T02:08:00;13.93;;;4.70;;
70549;SDS011;58101;48.658;2.328;2023-04-25T02:10:26;11.77;;;4.45;;
70549;SDS011;58101;48.658;2.328;2023-04-25T02:12:52;12.35;;;4.15;;
70549;SDS011;58101;48.658;2.328;2023-04-25T02:15:18;11.48;;;4.22;;
70549;SDS011;58101;48.658;2.328;2023-04-25T02:17:43;9.57;;;3.95;;
70549;SDS011;58101;48.658;2.328;2023-04-25T02:20:10;11.65;;;3.88;;
70549;SDS011;58101;48.658;2.328;2023-04-25T02:22:36;11.32;;;4.10;;
70549;SDS011;58101;48.658;2.328;2023-04-25T02:25:02;12.23;;;4.47;;
70549;SDS011;58101;48.658;2.328;2023-04-25T02:27:29;10.90;;;4.30;;
70549;SDS011;58101;48.658;2.328;2023-04-25T02:29:55;13.07;;;4.10;;
70549;SDS011;58101;48.658;2.328;2023-04-25T02:32:21;13.77;;;4.38;;
70549;SDS011;58101;48.658;2.328;2023-04-25T02:34:59;12.68;;;4.03;;
70549;SDS011;58101;48.658;2.328;2023-04-25T02:37:28;8.68;;;3.70;;
70549;SDS011;58101;48.658;2.328;2023-04-25T02:39:55;11.18;;;3.85;;
70549;SDS011;58101;48.658;2.328;2023-04-25T02:42:20;15.65;;;4.00;;
70549;SDS011;58101;48.658;2.328;2023-04-25T02:44:46;10.20;;;3.72;;
70549;SDS011;58101;48.658;2.328;2023-04-25T02:47:21;12.90;;;3.35;;
70549;SDS011;58101;48.658;2.328;2023-04-25T02:49:47;11.10;;;3.88;;
70549;SDS011;58101;48.658;2.328;2023-04-25T02:52:12;11.90;;;3.63;;
70549;SDS011;58101;48.658;2.328;2023-04-25T02:54:39;11.00;;;3.38;;
70549;SDS011;58101;48.658;2.328;2023-04-25T02:57:05;14.52;;;3.60;;
70549;SDS011;58101;48.658;2.328;2023-04-25T02:59:31;11.77;;;3.33;;
70549;SDS011;58101;48.658;2.328;2023-04-25T03:01:57;13.38;;;3.80;;
70549;SDS011;58101;48.658;2.328;2023-04-25T03:04:29;11.10;;;4.00;;
70549;SDS011;58101;48.658;2.328;2023-04-25T03:06:56;13.73;;;3.97;;
70549;SDS011;58101;48.658;2.328;2023-04-25T03:09:22;13.15;;;4.10;;
70549;SDS011;58101;48.658;2.328;2023-04-25T03:11:47;14.85;;;3.78;;
70549;SDS011;58101;48.658;2.328;2023-04-25T03:14:13;14.10;;;3.80;;
70549;SDS011;58101;48.658;2.328;2023-04-25T03:16:39;13.90;;;4.03;;
70549;SDS011;58101;48.658;2.328;2023-04-25T03:19:08;10.75;;;3.55;;
70549;SDS011;58101;48.658;2.328;2023-04-25T03:24:27;11.60;;;3.63;;
70549;SDS011;58101;48.658;2.328;2023-04-25T03:26:59;13.77;;;4.00;;
70549;SDS011;58101;48.658;2.328;2023-04-25T03:29:45;12.23;;;3.67;;
70549;SDS011;58101;48.658;2.328;2023-04-25T03:32:11;14.43;;;3.97;;
70549;SDS011;58101;48.658;2.328;2023-04-25T03:34:36;11.68;;;3.75;;
70549;SDS011;58101;48.658;2.328;2023-04-25T03:37:20;14.07;;;4.30;;
70549;SDS011;58101;48.658;2.328;2023-04-25T03:39:46;20.48;;;4.97;;
70549;SDS011;58101;48.658;2.328;2023-04-25T03:45:51;13.75;;;4.32;;
70549;SDS011;58101;48.658;2.328;2023-04-25T03:48:17;14.40;;;3.80;;
70549;SDS011;58101;48.658;2.328;2023-04-25T03:50:42;17.20;;;4.60;;
70549;SDS011;58101;48.658;2.328;2023-04-25T03:53:08;11.35;;;4.22;;
70549;SDS011;58101;48.658;2.328;2023-04-25T03:55:40;13.45;;;4.00;;
70549;SDS011;58101;48.658;2.328;2023-04-25T04:01:52;12.05;;;3.45;;
70549;SDS011;58101;48.658;2.328;2023-04-25T04:08:04;15.85;;;4.47;;
70549;SDS011;58101;48.658;2.328;2023-04-25T04:10:36;14.90;;;4.00;;
70549;SDS011;58101;48.658;2.328;2023-04-25T04:13:13;14.40;;;4.70;;
70549;SDS011;58101;48.658;2.328;2023-04-25T04:15:54;13.23;;;4.45;;
70549;SDS011;58101;48.658;2.328;2023-04-25T04:18:21;17.90;;;4.32;;
70549;SDS011;58101;48.658;2.328;2023-04-25T04:24:34;10.13;;;3.80;;
70549;SDS011;58101;48.658;2.328;2023-04-25T04:36:34;14.05;;;4.00;;
70549;SDS011;58101;48.658;2.328;2023-04-25T04:39:09;12.48;;;4.10;;
70549;SDS011;58101;48.658;2.328;2023-04-25T04:48:26;17.33;;;4.57;;
70549;SDS011;58101;48.658;2.328;2023-04-25T04:50:59;16.00;;;4.28;;
70549;SDS011;58101;48.658;2.328;2023-04-25T04:56:24;15.48;;;4.80;;
70549;SDS011;58101;48.658;2.328;2023-04-25T04:59:46;14.10;;;4.82;;
70549;SDS011;58101;48.658;2.328;2023-04-25T05:02:26;10.27;;;4.55;;
70549;SDS011;58101;48.658;2.328;2023-04-25T05:04:57;15.30;;;4.72;;
70549;SDS011;58101;48.658;2.328;2023-04-25T05:07:26;13.38;;;4.30;;
70549;SDS011;58101;48.658;2.328;2023-04-25T05:12:40;14.50;;;4.45;;
70549;SDS011;58101;48.658;2.328;2023-04-25T05:15:11;13.88;;;4.13;;
70549;SDS011;58101;48.658;2.328;2023-04-25T05:17:40;14.57;;;4.60;;
70549;SDS011;58101;48.658;2.328;2023-04-25T05:20:49;12.40;;;4.25;;
70549;SDS011;58101;48.658;2.328;2023-04-25T05:23:29;13.75;;;4.50;;
70549;SDS011;58101;48.658;2.328;2023-04-25T05:25:56;15.88;;;4.57;;
70549;SDS011;58101;48.658;2.328;2023-04-25T05:31:16;14.10;;;4.60;;
70549;SDS011;58101;48.658;2.328;2023-04-25T05:34:00;17.52;;;5.13;;
70549;SDS011;58101;48.658;2.328;2023-04-25T05:42:31;14.20;;;4.25;;
70549;SDS011;58101;48.658;2.328;2023-04-25T05:48:06;11.35;;;4.45;;
70549;SDS011;58101;48.658;2.328;2023-04-25T05:50:37;13.85;;;4.63;;
70549;SDS011;58101;48.658;2.328;2023-04-25T05:53:02;30.63;;;9.55;;
70549;SDS011;58101;48.658;2.328;2023-04-25T05:55:28;13.13;;;4.93;;
70549;SDS011;58101;48.658;2.328;2023-04-25T05:57:54;16.67;;;4.40;;
70549;SDS011;58101;48.658;2.328;2023-04-25T06:06:16;12.57;;;4.55;;
70549;SDS011;58101;48.658;2.328;2023-04-25T06:08:44;16.00;;;4.93;;
70549;SDS011;58101;48.658;2.328;2023-04-25T06:11:27;17.63;;;4.70;;
70549;SDS011;58101;48.658;2.328;2023-04-25T06:13:53;19.63;;;4.93;;
70549;SDS011;58101;48.658;2.328;2023-04-25T06:16:29;17.33;;;5.20;;
70549;SDS011;58101;48.658;2.328;2023-04-25T06:18:55;16.92;;;5.03;;
70549;SDS011;58101;48.658;2.328;2023-04-25T06:21:20;16.48;;;6.22;;
70549;SDS011;58101;48.658;2.328;2023-04-25T06:23:46;15.50;;;5.47;;
70549;SDS011;58101;48.658;2.328;2023-04-25T06:26:11;16.15;;;6.63;;
70549;SDS011;58101;48.658;2.328;2023-04-25T06:28:37;12.55;;;5.25;;
70549;SDS011;58101;48.658;2.328;2023-04-25T06:34:14;15.57;;;5.43;;
70549;SDS011;58101;48.658;2.328;2023-04-25T06:36:40;16.15;;;6.15;;
70549;SDS011;58101;48.658;2.328;2023-04-25T06:45:15;14.93;;;6.38;;
70549;SDS011;58101;48.658;2.328;2023-04-25T06:47:44;16.25;;;5.63;;
70549;SDS011;58101;48.658;2.328;2023-04-25T06:53:03;17.02;;;5.82;;
70549;SDS011;58101;48.658;2.328;2023-04-25T07:01:18;14.85;;;5.88;;
70549;SDS011;58101;48.658;2.328;2023-04-25T07:06:22;18.05;;;6.20;;
70549;SDS011;58101;48.658;2.328;2023-04-25T07:08:48;15.65;;;6.05;;
70549;SDS011;58101;48.658;2.328;2023-04-25T07:11:13;19.70;;;6.50;;
70549;SDS011;58101;48.658;2.328;2023-04-25T07:13:39;17.73;;;6.00;;
70549;SDS011;58101;48.658;2.328;2023-04-25T07:16:07;21.92;;;7.28;;
70549;SDS011;58101;48.658;2.328;2023-04-25T07:18:33;19.23;;;6.75;;
70549;SDS011;58101;48.658;2.328;2023-04-25T07:20:59;20.95;;;6.65;;
70549;SDS011;58101;48.658;2.328;2023-04-25T07:23:24;17.38;;;5.47;;
70549;SDS011;58101;48.658;2.328;2023-04-25T07:25:51;16.38;;;6.15;;
70549;SDS011;58101;48.658;2.328;2023-04-25T07:28:16;14.90;;;6.00;;
70549;SDS011;58101;48.658;2.328;2023-04-25T07:30:42;16.13;;;6.40;;
70549;SDS011;58101;48.658;2.328;2023-04-25T07:33:08;14.25;;;5.28;;
70549;SDS011;58101;48.658;2.328;2023-04-25T07:35:36;14.18;;;5.53;;
70549;SDS011;58101;48.658;2.328;2023-04-25T07:38:02;14.93;;;5.18;;
70549;SDS011;58101;48.658;2.328;2023-04-25T07:40:28;11.90;;;5.40;;
70549;SDS011;58101;48.658;2.328;2023-04-25T07:42:55;11.82;;;5.10;;
70549;SDS011;58101;48.658;2.328;2023-04-25T07:45:20;15.40;;;5.43;;
70549;SDS011;58101;48.658;2.328;2023-04-25T07:47:46;14.15;;;5.05;;
70549;SDS011;58101;48.658;2.328;2023-04-25T07:50:11;12.45;;;5.07;;
70549;SDS011;58101;48.658;2.328;2023-04-25T07:52:37;13.30;;;5.00;;
70549;SDS011;58101;48.658;2.328;2023-04-25T07:55:03;11.82;;;4.60;;
70549;SDS011;58101;48.658;2.328;2023-04-25T07:57:29;10.65;;;4.75;;
70549;SDS011;58101;48.658;2.328;2023-04-25T07:59:55;12.30;;;4.47;;
70549;SDS011;58101;48.658;2.328;2023-04-25T08:02:20;11.07;;;4.60;;
70549;SDS011;58101;48.658;2.328;2023-04-25T08:04:46;11.25;;;4.20;;
70549;SDS011;58101;48.658;2.328;2023-04-25T08:07:12;11.68;;;4.50;;
70549;SDS011;58101;48.658;2.328;2023-04-25T08:09:37;11.35;;;4.57;;
70549;SDS011;58101;48.658;2.328;2023-04-25T08:14:47;11.20;;;5.32;;
70549;SDS011;58101;48.658;2.328;2023-04-25T08:17:13;13.27;;;5.80;;
70549;SDS011;58101;48.658;2.328;2023-04-25T08:19:40;13.73;;;5.85;;
70549;SDS011;58101;48.658;2.328;2023-04-25T08:22:05;13.20;;;6.25;;
70549;SDS011;58101;48.658;2.328;2023-04-25T08:24:31;15.57;;;6.88;;
70549;SDS011;58101;48.658;2.328;2023-04-25T08:26:57;16.90;;;7.00;;
70549;SDS011;58101;48.658;2.328;2023-04-25T08:29:23;15.65;;;6.38;;
70549;SDS011;58101;48.658;2.328;2023-04-25T08:31:50;14.25;;;6.47;;
70549;SDS011;58101;48.658;2.328;2023-04-25T08:37:07;17.45;;;6.57;;
70549;SDS011;58101;48.658;2.328;2023-04-25T08:39:43;15.25;;;6.95;;
70549;SDS011;58101;48.658;2.328;2023-04-25T08:42:43;18.48;;;7.63;;
70549;SDS011;58101;48.658;2.328;2023-04-25T08:45:10;16.58;;;7.85;;
70549;SDS011;58101;48.658;2.328;2023-04-25T08:47:37;17.65;;;8.52;;
70549;SDS011;58101;48.658;2.328;2023-04-25T08:50:04;25.50;;;9.05;;
70549;SDS011;58101;48.658;2.328;2023-04-25T08:55:00;30.35;;;11.65;;
70549;SDS011;58101;48.658;2.328;2023-04-25T08:57:27;18.20;;;7.70;;
70549;SDS011;58101;48.658;2.328;2023-04-25T08:59:56;25.92;;;10.07;;
70549;SDS011;58101;48.658;2.328;2023-04-25T09:02:35;18.13;;;7.70;;
70549;SDS011;58101;48.658;2.328;2023-04-25T09:05:25;27.15;;;8.75;;
70549;SDS011;58101;48.658;2.328;2023-04-25T09:07:54;21.00;;;7.95;;
70549;SDS011;58101;48.658;2.328;2023-04-25T09:10:21;18.20;;;7.43;;
70549;SDS011;58101;48.658;2.328;2023-04-25T09:13:03;17.40;;;7.57;;
70549;SDS011;58101;48.658;2.328;2023-04-25T09:15:52;17.33;;;6.95;;
70549;SDS011;58101;48.658;2.328;2023-04-25T09:18:27;14.93;;;5.88;;
70549;SDS011;58101;48.658;2.328;2023-04-25T09:20:58;15.13;;;5.90;;
70549;SDS011;58101;48.658;2.328;2023-04-25T09:23:41;17.17;;;6.47;;
70549;SDS011;58101;48.658;2.328;2023-04-25T09:26:16;16.25;;;7.28;;
70549;SDS011;58101;48.658;2.328;2023-04-25T09:28:43;15.75;;;6.85;;
70549;SDS011;58101;48.658;2.328;2023-04-25T09:31:23;16.58;;;6.50;;
70549;SDS011;58101;48.658;2.328;2023-04-25T09:33:50;15.93;;;6.30;;
70549;SDS011;58101;48.658;2.328;2023-04-25T09:36:26;18.25;;;7.40;;
70549;SDS011;58101;48.658;2.328;2023-04-25T09:38:52;17.15;;;6.07;;
70549;SDS011;58101;48.658;2.328;2023-04-25T09:44:08;14.88;;;6.00;;
70549;SDS011;58101;48.658;2.328;2023-04-25T09:46:38;17.50;;;6.00;;
70549;SDS011;58101;48.658;2.328;2023-04-25T09:49:06;16.27;;;5.78;;
70549;SDS011;58101;48.658;2.328;2023-04-25T09:51:33;15.77;;;5.40;;
70549;SDS011;58101;48.658;2.328;2023-04-25T09:53:59;15.95;;;6.18;;
70549;SDS011;58101;48.658;2.328;2023-04-25T09:56:24;16.33;;;7.40;;
70549;SDS011;58101;48.658;2.328;2023-04-25T09:59:35;16.02;;;5.88;;
70549;SDS011;58101;48.658;2.328;2023-04-25T10:02:06;16.23;;;5.40;;
70549;SDS011;58101;48.658;2.328;2023-04-25T10:07:22;17.00;;;6.18;;
70549;SDS011;58101;48.658;2.328;2023-04-25T10:10:03;16.52;;;6.18;;
70549;SDS011;58101;48.658;2.328;2023-04-25T10:12:32;20.40;;;6.38;;
70549;SDS011;58101;48.658;2.328;2023-04-25T10:15:00;14.73;;;5.35;;
70549;SDS011;58101;48.658;2.328;2023-04-25T10:17:37;14.18;;;5.60;;
70549;SDS011;58101;48.658;2.328;2023-04-25T10:20:04;19.08;;;6.20;;
70549;SDS011;58101;48.658;2.328;2023-04-25T10:22:37;17.48;;;5.60;;
70549;SDS011;58101;48.658;2.328;2023-04-25T10:25:06;15.73;;;5.22;;
70549;SDS011;58101;48.658;2.328;2023-04-25T10:27:50;14.02;;;5.18;;
70549;SDS011;58101;48.658;2.328;2023-04-25T10:33:39;16.08;;;4.90;;
70549;SDS011;58101;48.658;2.328;2023-04-25T10:36:14;16.27;;;5.47;;
70549;SDS011;58101;48.658;2.328;2023-04-25T10:38:43;12.68;;;4.60;;
70549;SDS011;58101;48.658;2.328;2023-04-25T10:41:10;14.45;;;4.80;;
70549;SDS011;58101;48.658;2.328;2023-04-25T10:46:33;12.52;;;4.30;;
70549;SDS011;58101;48.658;2.328;2023-04-25T10:49:04;11.73;;;4.07;;
70549;SDS011;58101;48.658;2.328;2023-04-25T10:51:36;16.27;;;5.70;;
70549;SDS011;58101;48.658;2.328;2023-04-25T10:54:17;10.25;;;4.00;;
70549;SDS011;58101;48.658;2.328;2023-04-25T10:56:43;11.13;;;3.60;;
70549;SDS011;58101;48.658;2.328;2023-04-25T11:02:09;12.90;;;4.03;;
70549;SDS011;58101;48.658;2.328;2023-04-25T11:07:57;12.80;;;5.22;;
70549;SDS011;58101;48.658;2.328;2023-04-25T11:13:42;14.57;;;4.15;;
70549;SDS011;58101;48.658;2.328;2023-04-25T11:16:07;13.95;;;4.43;;
70549;SDS011;58101;48.658;2.328;2023-04-25T11:18:33;12.63;;;4.60;;
70549;SDS011;58101;48.658;2.328;2023-04-25T11:21:03;12.10;;;4.40;;
70549;SDS011;58101;48.658;2.328;2023-04-25T11:23:46;12.43;;;4.40;;
70549;SDS011;58101;48.658;2.328;2023-04-25T11:26:13;14.13;;;4.68;;
70549;SDS011;58101;48.658;2.328;2023-04-25T11:31:12;10.13;;;3.55;;
70549;SDS011;58101;48.658;2.328;2023-04-25T11:33:38;12.98;;;4.63;;
70549;SDS011;58101;48.658;2.328;2023-04-25T11:36:05;12.68;;;5.25;;
70549;SDS011;58101;48.658;2.328;2023-04-25T11:38:41;14.50;;;5.60;;
70549;SDS011;58101;48.658;2.328;2023-04-25T11:41:16;13.57;;;5.00;;
70549;SDS011;58101;48.658;2.328;2023-04-25T11:43:45;11.38;;;3.67;;
70549;SDS011;58101;48.658;2.328;2023-04-25T11:46:14;12.32;;;4.30;;
70549;SDS011;58101;48.658;2.328;2023-04-25T11:48:46;12.98;;;4.63;;
70549;SDS011;58101;48.658;2.328;2023-04-25T11:54:11;12.40;;;4.68;;
70549;SDS011;58101;48.658;2.328;2023-04-25T11:56:37;23.02;;;8.20;;
70549;SDS011;58101;48.658;2.328;2023-04-25T11:59:07;27.15;;;8.55;;
70549;SDS011;58101;48.658;2.328;2023-04-25T12:01:36;27.27;;;10.35;;
70549;SDS011;58101;48.658;2.328;2023-04-25T12:04:13;24.63;;;6.75;;
70549;SDS011;58101;48.658;2.328;2023-04-25T12:06:44;18.85;;;6.78;;
70549;SDS011;58101;48.658;2.328;2023-04-25T12:09:16;19.10;;;7.50;;
70549;SDS011;58101;48.658;2.328;2023-04-25T12:11:52;14.93;;;5.43;;
70549;SDS011;58101;48.658;2.328;2023-04-25T12:14:20;15.70;;;5.85;;
70549;SDS011;58101;48.658;2.328;2023-04-25T12:17:28;16.70;;;5.10;;
70549;SDS011;58101;48.658;2.328;2023-04-25T12:20:09;15.75;;;5.75;;
70549;SDS011;58101;48.658;2.328;2023-04-25T12:22:41;13.05;;;5.20;;
70549;SDS011;58101;48.658;2.328;2023-04-25T12:28:20;15.73;;;4.30;;
70549;SDS011;58101;48.658;2.328;2023-04-25T12:30:52;16.33;;;3.50;;
70549;SDS011;58101;48.658;2.328;2023-04-25T12:44:44;14.27;;;3.80;;
70549;SDS011;58101;48.658;2.328;2023-04-25T12:47:22;12.27;;;4.22;;
70549;SDS011;58101;48.658;2.328;2023-04-25T12:50:05;16.17;;;5.97;;
70549;SDS011;58101;48.658;2.328;2023-04-25T13:02:19;10.13;;;3.70;;
70549;SDS011;58101;48.658;2.328;2023-04-25T13:04:56;13.15;;;4.45;;
70549;SDS011;58101;48.658;2.328;2023-04-25T13:13:29;9.07;;;3.40;;
70549;SDS011;58101;48.658;2.328;2023-04-25T13:16:02;12.70;;;4.93;;
70549;SDS011;58101;48.658;2.328;2023-04-25T13:18:32;13.82;;;4.70;;
70549;SDS011;58101;48.658;2.328;2023-04-25T13:21:03;9.95;;;3.63;;
70549;SDS011;58101;48.658;2.328;2023-04-25T13:29:17;12.52;;;4.07;;
70549;SDS011;58101;48.658;2.328;2023-04-25T13:31:43;14.65;;;3.95;;
70549;SDS011;58101;48.658;2.328;2023-04-25T13:34:09;10.20;;;3.47;;
70549;SDS011;58101;48.658;2.328;2023-04-25T13:36:37;14.52;;;4.43;;
70549;SDS011;58101;48.658;2.328;2023-04-25T13:39:03;12.32;;;4.22;;
70549;SDS011;58101;48.658;2.328;2023-04-25T13:41:32;10.65;;;3.45;;
70549;SDS011;58101;48.658;2.328;2023-04-25T13:43:57;11.02;;;3.63;;
70549;SDS011;58101;48.658;2.328;2023-04-25T13:46:38;12.02;;;4.07;;
70549;SDS011;58101;48.658;2.328;2023-04-25T13:49:19;16.38;;;3.97;;
70549;SDS011;58101;48.658;2.328;2023-04-25T13:51:48;10.85;;;3.85;;
70549;SDS011;58101;48.658;2.328;2023-04-25T13:54:19;15.15;;;4.60;;
70549;SDS011;58101;48.658;2.328;2023-04-25T13:56:47;14.70;;;6.20;;
70549;SDS011;58101;48.658;2.328;2023-04-25T13:59:23;13.48;;;4.25;;
70549;SDS011;58101;48.658;2.328;2023-04-25T14:01:49;16.35;;;3.85;;
70549;SDS011;58101;48.658;2.328;2023-04-25T14:04:18;15.75;;;3.53;;
70549;SDS011;58101;48.658;2.328;2023-04-25T14:10:31;13.65;;;4.55;;
70549;SDS011;58101;48.658;2.328;2023-04-25T14:12:59;16.10;;;5.45;;
70549;SDS011;58101;48.658;2.328;2023-04-25T14:15:31;10.77;;;3.28;;
70549;SDS011;58101;48.658;2.328;2023-04-25T14:17:57;10.35;;;3.35;;
70549;SDS011;58101;48.658;2.328;2023-04-25T14:20:23;12.77;;;3.85;;
70549;SDS011;58101;48.658;2.328;2023-04-25T14:22:51;14.85;;;4.10;;
70549;SDS011;58101;48.658;2.328;2023-04-25T14:25:21;9.90;;;3.08;;
70549;SDS011;58101;48.658;2.328;2023-04-25T14:27:47;10.18;;;2.95;;
70549;SDS011;58101;48.658;2.328;2023-04-25T14:30:15;9.52;;;3.30;;
70549;SDS011;58101;48.658;2.328;2023-04-25T14:32:44;12.88;;;4.20;;
70549;SDS011;58101;48.658;2.328;2023-04-25T14:35:19;12.32;;;3.85;;
70549;SDS011;58101;48.658;2.328;2023-04-25T14:37:45;11.85;;;3.50;;
70549;SDS011;58101;48.658;2.328;2023-04-25T14:40:11;12.48;;;3.80;;
70549;SDS011;58101;48.658;2.328;2023-04-25T14:42:48;11.20;;;3.50;;
70549;SDS011;58101;48.658;2.328;2023-04-25T14:45:16;12.70;;;3.45;;
70549;SDS011;58101;48.658;2.328;2023-04-25T14:47:42;10.45;;;3.65;;
70549;SDS011;58101;48.658;2.328;2023-04-25T14:50:08;12.82;;;3.50;;
70549;SDS011;58101;48.658;2.328;2023-04-25T14:52:43;10.60;;;4.25;;
70549;SDS011;58101;48.658;2.328;2023-04-25T14:58:22;12.43;;;3.65;;
70549;SDS011;58101;48.658;2.328;2023-04-25T15:00:48;11.40;;;3.95;;
70549;SDS011;58101;48.658;2.328;2023-04-25T15:03:14;11.07;;;3.00;;
70549;SDS011;58101;48.658;2.328;2023-04-25T15:05:41;12.15;;;3.58;;
70549;SDS011;58101;48.658;2.328;2023-04-25T15:08:07;10.77;;;3.22;;
70549;SDS011;58101;48.658;2.328;2023-04-25T15:10:33;11.48;;;3.17;;
70549;SDS011;58101;48.658;2.328;2023-04-25T15:12:59;14.45;;;3.60;;
70549;SDS011;58101;48.658;2.328;2023-04-25T15:18:46;12.35;;;3.63;;
70549;SDS011;58101;48.658;2.328;2023-04-25T15:24:47;14.00;;;4.00;;
70549;SDS011;58101;48.658;2.328;2023-04-25T15:27:18;11.27;;;3.55;;
70549;SDS011;58101;48.658;2.328;2023-04-25T15:29:43;11.55;;;3.05;;
70549;SDS011;58101;48.658;2.328;2023-04-25T15:32:12;12.40;;;4.18;;
70549;SDS011;58101;48.658;2.328;2023-04-25T15:37:44;23.83;;;9.02;;
70549;SDS011;58101;48.658;2.328;2023-04-25T15:40:11;11.38;;;3.65;;
70549;SDS011;58101;48.658;2.328;2023-04-25T15:42:43;11.27;;;3.97;;
70549;SDS011;58101;48.658;2.328;2023-04-25T15:45:13;12.27;;;3.60;;
70549;SDS011;58101;48.658;2.328;2023-04-25T15:47:41;13.98;;;6.25;;
70549;SDS011;58101;48.658;2.328;2023-04-25T15:50:22;11.93;;;3.58;;
70549;SDS011;58101;48.658;2.328;2023-04-25T15:52:57;14.85;;;5.55;;
70549;SDS011;58101;48.658;2.328;2023-04-25T15:55:23;17.13;;;6.40;;
70549;SDS011;58101;48.658;2.328;2023-04-25T15:57:50;21.13;;;7.97;;
70549;SDS011;58101;48.658;2.328;2023-04-25T16:00:16;15.18;;;5.00;;
70549;SDS011;58101;48.658;2.328;2023-04-25T16:02:44;20.95;;;7.07;;
70549;SDS011;58101;48.658;2.328;2023-04-25T16:05:10;11.02;;;3.40;;
70549;SDS011;58101;48.658;2.328;2023-04-25T16:07:41;12.40;;;4.82;;
70549;SDS011;58101;48.658;2.328;2023-04-25T16:13:55;11.85;;;3.83;;
70549;SDS011;58101;48.658;2.328;2023-04-25T16:16:21;11.40;;;4.00;;
70549;SDS011;58101;48.658;2.328;2023-04-25T16:18:56;10.07;;;3.60;;
70549;SDS011;58101;48.658;2.328;2023-04-25T16:21:21;15.57;;;5.82;;
70549;SDS011;58101;48.658;2.328;2023-04-25T16:23:47;12.40;;;3.60;;
70549;SDS011;58101;48.658;2.328;2023-04-25T16:26:13;11.27;;;3.35;;
70549;SDS011;58101;48.658;2.328;2023-04-25T16:28:38;13.27;;;4.30;;
70549;SDS011;58101;48.658;2.328;2023-04-25T16:31:04;15.95;;;4.78;;
70549;SDS011;58101;48.658;2.328;2023-04-25T16:33:31;13.55;;;4.97;;
70549;SDS011;58101;48.658;2.328;2023-04-25T16:36:11;14.57;;;4.82;;
70549;SDS011;58101;48.658;2.328;2023-04-25T16:38:37;12.85;;;4.55;;
70549;SDS011;58101;48.658;2.328;2023-04-25T16:41:04;13.88;;;4.15;;
70549;SDS011;58101;48.658;2.328;2023-04-25T16:45:56;13.90;;;5.18;;
70549;SDS011;58101;48.658;2.328;2023-04-25T16:48:25;15.68;;;4.68;;
70549;SDS011;58101;48.658;2.328;2023-04-25T16:50:55;12.30;;;4.05;;
70549;SDS011;58101;48.658;2.328;2023-04-25T16:53:21;13.15;;;4.18;;
70549;SDS011;58101;48.658;2.328;2023-04-25T16:55:47;14.57;;;4.30;;
70549;SDS011;58101;48.658;2.328;2023-04-25T16:58:12;12.50;;;4.25;;
70549;SDS011;58101;48.658;2.328;2023-04-25T17:00:38;14.23;;;4.82;;
70549;SDS011;58101;48.658;2.328;2023-04-25T17:03:05;12.07;;;3.90;;
70549;SDS011;58101;48.658;2.328;2023-04-25T17:05:32;14.82;;;5.72;;
70549;SDS011;58101;48.658;2.328;2023-04-25T17:07:58;12.82;;;3.75;;
70549;SDS011;58101;48.658;2.328;2023-04-25T17:10:24;13.63;;;3.90;;
70549;SDS011;58101;48.658;2.328;2023-04-25T17:12:50;14.10;;;4.85;;
70549;SDS011;58101;48.658;2.328;2023-04-25T17:15:16;13.60;;;4.93;;
70549;SDS011;58101;48.658;2.328;2023-04-25T17:17:42;14.80;;;5.63;;
70549;SDS011;58101;48.658;2.328;2023-04-25T17:20:08;14.27;;;5.95;;
70549;SDS011;58101;48.658;2.328;2023-04-25T17:22:34;14.13;;;4.72;;
70549;SDS011;58101;48.658;2.328;2023-04-25T17:25:01;17.08;;;6.13;;
70549;SDS011;58101;48.658;2.328;2023-04-25T17:27:32;20.33;;;6.72;;
70549;SDS011;58101;48.658;2.328;2023-04-25T17:29:59;12.75;;;4.43;;
70549;SDS011;58101;48.658;2.328;2023-04-25T17:32:27;12.00;;;3.78;;
70549;SDS011;58101;48.658;2.328;2023-04-25T17:34:53;9.40;;;3.60;;
70549;SDS011;58101;48.658;2.328;2023-04-25T17:37:20;10.05;;;3.38;;
70549;SDS011;58101;48.658;2.328;2023-04-25T17:39:47;11.43;;;4.40;;
70549;SDS011;58101;48.658;2.328;2023-04-25T17:42:12;11.80;;;4.22;;